Main page
Satellite images 15-day forecastsClimateMarine weather Cyclones Lightning AirportsFAQ Newsletter About
Weather : Europe Africa North America South America Asia Australia-Oceania Others
Languages Contact

San Fernando, Argentina

latitude: 34-27-11S, longitude: 058-35-23W, elevation: 3 m


METAR: SADF 301200Z 16005KT 9999 FEW020 BKN200 18/15 Q1011
TAF: SADF 301100Z 3012/3112 18005KT CAVOK TX23/3018Z TN13/3109Z BECMG 3016/3018 14010KT

Time: 09:57 (12:57 UTC)

Current weather observation

The report was made 57 minutes ago, at 12:00 UTC
Wind 5 kt from the South/Southeast
Temperature 18°C
Humidity 83%
Pressure 1011 hPa
Visibility 10 km or more
Few clouds at a height of 2000 ft
Broken clouds at a height of 20000 ft

Change units

Forecast

The report was made 1 hour and 57 minutes ago, at 11:00 UTC
Forecast valid from 30 at 12 UTC to 31 at 12 UTC
Wind 5 kt from the South
Visibility 10 km or more
no clouds below 1500 m and no cumulonimbus
Becoming
from 30 at 16 UTC to 30 at 18 UTC
Wind 10 kt from the Southeast
The information on this site is subject to a disclaimer
Weather : Europe Africa North America South America Asia Australia-Oceania Others
Satellite images 15-day forecastsClimateMarine weather Cyclones Lightning AirportsFAQ Languages Contact Newsletter About